sensor_id;sensor_type;location;lat;lon;timestamp;pressure;altitude;pressure_sealevel;temperature;humidity
31911;BME280;18457;52.432;16.914;2024-01-30T00:01:43;101994.81;;;4.52;84.46
31911;BME280;18457;52.432;16.914;2024-01-30T00:04:16;102005.60;;;4.54;84.65
31911;BME280;18457;52.432;16.914;2024-01-30T00:06:47;102004.98;;;4.51;84.57
31911;BME280;18457;52.432;16.914;2024-01-30T00:09:19;102006.91;;;4.50;84.64
31911;BME280;18457;52.432;16.914;2024-01-30T00:11:51;102006.67;;;4.47;84.62
31911;BME280;18457;52.432;16.914;2024-01-30T00:14:23;102008.80;;;4.47;84.68
31911;BME280;18457;52.432;16.914;2024-01-30T00:16:55;102008.05;;;4.45;84.52
31911;BME280;18457;52.432;16.914;2024-01-30T00:19:27;102006.22;;;4.43;84.52
31911;BME280;18457;52.432;16.914;2024-01-30T00:21:59;102002.56;;;4.41;84.44
31911;BME280;18457;52.432;16.914;2024-01-30T00:24:31;101997.36;;;4.40;84.55
31911;BME280;18457;52.432;16.914;2024-01-30T00:27:03;101997.50;;;4.39;84.54
31911;BME280;18457;52.432;16.914;2024-01-30T00:29:35;101996.60;;;4.38;84.52
31911;BME280;18457;52.432;16.914;2024-01-30T00:32:08;102001.19;;;4.36;84.36
31911;BME280;18457;52.432;16.914;2024-01-30T00:34:41;101999.03;;;4.36;84.32
31911;BME280;18457;52.432;16.914;2024-01-30T00:37:13;101995.41;;;4.34;84.14
31911;BME280;18457;52.432;16.914;2024-01-30T00:39:45;102001.39;;;4.37;84.03
31911;BME280;18457;52.432;16.914;2024-01-30T00:42:17;102001.49;;;4.34;84.09
31911;BME280;18457;52.432;16.914;2024-01-30T00:44:50;102000.23;;;4.34;84.44
31911;BME280;18457;52.432;16.914;2024-01-30T00:47:22;102002.91;;;4.33;84.20
31911;BME280;18457;52.432;16.914;2024-01-30T00:49:53;102005.73;;;4.32;84.01
31911;BME280;18457;52.432;16.914;2024-01-30T00:52:25;102005.55;;;4.32;83.87
31911;BME280;18457;52.432;16.914;2024-01-30T00:54:57;101998.74;;;4.31;83.83
31911;BME280;18457;52.432;16.914;2024-01-30T00:57:30;101999.63;;;4.31;83.92
31911;BME280;18457;52.432;16.914;2024-01-30T01:00:01;102002.86;;;4.31;83.83
31911;BME280;18457;52.432;16.914;2024-01-30T01:02:37;102000.70;;;4.31;83.78
31911;BME280;18457;52.432;16.914;2024-01-30T01:05:10;102005.12;;;4.29;84.03
31911;BME280;18457;52.432;16.914;2024-01-30T01:07:42;101996.55;;;4.29;83.88
31911;BME280;18457;52.432;16.914;2024-01-30T01:10:14;101998.35;;;4.30;83.62
31911;BME280;18457;52.432;16.914;2024-01-30T01:12:47;101994.52;;;4.28;83.63
31911;BME280;18457;52.432;16.914;2024-01-30T01:15:20;101996.77;;;4.25;83.91
31911;BME280;18457;52.432;16.914;2024-01-30T01:17:52;101992.67;;;4.25;83.93
31911;BME280;18457;52.432;16.914;2024-01-30T01:20:24;101993.69;;;4.24;83.84
31911;BME280;18457;52.432;16.914;2024-01-30T01:22:56;101991.73;;;4.23;83.96
31911;BME280;18457;52.432;16.914;2024-01-30T01:25:28;101989.56;;;4.23;83.66
31911;BME280;18457;52.432;16.914;2024-01-30T01:28:00;101991.83;;;4.21;83.66
31911;BME280;18457;52.432;16.914;2024-01-30T01:30:32;101987.29;;;4.19;83.67
31911;BME280;18457;52.432;16.914;2024-01-30T01:33:04;101987.89;;;4.21;83.30
31911;BME280;18457;52.432;16.914;2024-01-30T01:35:38;101989.12;;;4.20;83.29
31911;BME280;18457;52.432;16.914;2024-01-30T01:38:10;101983.90;;;4.19;83.38
31911;BME280;18457;52.432;16.914;2024-01-30T01:40:42;101985.60;;;4.16;83.60
31911;BME280;18457;52.432;16.914;2024-01-30T01:43:14;101984.52;;;4.15;83.51
31911;BME280;18457;52.432;16.914;2024-01-30T01:45:47;101986.80;;;4.14;83.45
31911;BME280;18457;52.432;16.914;2024-01-30T01:48:19;101987.64;;;4.12;83.77
31911;BME280;18457;52.432;16.914;2024-01-30T01:50:52;101989.07;;;4.12;83.63
31911;BME280;18457;52.432;16.914;2024-01-30T01:53:25;101993.52;;;4.11;83.62
31911;BME280;18457;52.432;16.914;2024-01-30T01:55:58;101988.45;;;4.09;83.78
31911;BME280;18457;52.432;16.914;2024-01-30T01:58:30;101989.41;;;4.04;84.68
31911;BME280;18457;52.432;16.914;2024-01-30T02:01:03;101987.01;;;4.08;83.94
31911;BME280;18457;52.432;16.914;2024-01-30T02:03:34;101988.01;;;4.05;84.09
31911;BME280;18457;52.432;16.914;2024-01-30T02:06:06;101986.24;;;4.06;83.77
31911;BME280;18457;52.432;16.914;2024-01-30T02:08:39;101983.90;;;4.06;83.44
31911;BME280;18457;52.432;16.914;2024-01-30T02:11:11;101982.77;;;4.04;83.41
31911;BME280;18457;52.432;16.914;2024-01-30T02:13:43;101980.34;;;4.00;83.60
31911;BME280;18457;52.432;16.914;2024-01-30T02:16:15;101979.83;;;3.95;84.61
31911;BME280;18457;52.432;16.914;2024-01-30T02:18:46;101983.70;;;3.92;85.51
31911;BME280;18457;52.432;16.914;2024-01-30T02:21:19;101985.91;;;3.89;86.23
31911;BME280;18457;52.432;16.914;2024-01-30T02:23:52;101979.31;;;3.83;86.71
31911;BME280;18457;52.432;16.914;2024-01-30T02:26:24;101974.90;;;3.79;87.85
31911;BME280;18457;52.432;16.914;2024-01-30T02:28:56;101974.16;;;3.78;87.13
31911;BME280;18457;52.432;16.914;2024-01-30T02:31:28;101978.23;;;3.76;87.42
31911;BME280;18457;52.432;16.914;2024-01-30T02:34:00;101973.29;;;3.72;87.29
31911;BME280;18457;52.432;16.914;2024-01-30T02:36:33;101977.06;;;3.67;87.29
31911;BME280;18457;52.432;16.914;2024-01-30T02:39:05;101980.10;;;3.67;87.31
31911;BME280;18457;52.432;16.914;2024-01-30T02:41:37;101979.48;;;3.58;88.36
31911;BME280;18457;52.432;16.914;2024-01-30T02:44:09;101978.66;;;3.54;87.62
31911;BME280;18457;52.432;16.914;2024-01-30T02:46:41;101980.53;;;3.45;88.98
31911;BME280;18457;52.432;16.914;2024-01-30T02:49:13;101977.64;;;3.39;89.67
31911;BME280;18457;52.432;16.914;2024-01-30T02:51:45;101978.95;;;3.46;88.40
31911;BME280;18457;52.432;16.914;2024-01-30T02:54:17;101974.06;;;3.56;86.86
31911;BME280;18457;52.432;16.914;2024-01-30T02:56:49;101974.67;;;3.65;86.10
31911;BME280;18457;52.432;16.914;2024-01-30T02:59:21;101970.17;;;3.69;85.45
31911;BME280;18457;52.432;16.914;2024-01-30T03:01:53;101968.44;;;3.72;85.02
31911;BME280;18457;52.432;16.914;2024-01-30T03:04:26;101974.42;;;3.75;85.05
31911;BME280;18457;52.432;16.914;2024-01-30T03:07:03;101970.86;;;3.75;84.73
31911;BME280;18457;52.432;16.914;2024-01-30T03:09:36;101966.58;;;3.75;84.70
31911;BME280;18457;52.432;16.914;2024-01-30T03:12:08;101964.60;;;3.74;85.16
31911;BME280;18457;52.432;16.914;2024-01-30T03:14:41;101964.45;;;3.75;84.99
31911;BME280;18457;52.432;16.914;2024-01-30T03:17:13;101960.89;;;3.76;85.09
31911;BME280;18457;52.432;16.914;2024-01-30T03:19:45;101962.67;;;3.76;84.65
31911;BME280;18457;52.432;16.914;2024-01-30T03:22:17;101959.16;;;3.72;84.82
31911;BME280;18457;52.432;16.914;2024-01-30T03:24:49;101959.50;;;3.71;84.74
31911;BME280;18457;52.432;16.914;2024-01-30T03:27:21;101957.95;;;3.68;84.93
31911;BME280;18457;52.432;16.914;2024-01-30T03:29:53;101959.33;;;3.66;85.70
31911;BME280;18457;52.432;16.914;2024-01-30T03:32:25;101956.56;;;3.63;85.60
31911;BME280;18457;52.432;16.914;2024-01-30T03:34:57;101954.95;;;3.63;85.42
31911;BME280;18457;52.432;16.914;2024-01-30T03:37:30;101957.55;;;3.66;85.03
31911;BME280;18457;52.432;16.914;2024-01-30T03:40:02;101955.77;;;3.67;84.51
31911;BME280;18457;52.432;16.914;2024-01-30T03:42:35;101953.02;;;3.69;84.16
31911;BME280;18457;52.432;16.914;2024-01-30T03:45:09;101947.84;;;3.70;84.05
31911;BME280;18457;52.432;16.914;2024-01-30T03:47:41;101948.13;;;3.68;84.25
31911;BME280;18457;52.432;16.914;2024-01-30T03:50:15;101954.24;;;3.63;85.73
31911;BME280;18457;52.432;16.914;2024-01-30T03:52:47;101953.48;;;3.61;85.88
31911;BME280;18457;52.432;16.914;2024-01-30T03:55:19;101957.21;;;3.61;85.17
31911;BME280;18457;52.432;16.914;2024-01-30T03:57:51;101955.84;;;3.62;85.46
31911;BME280;18457;52.432;16.914;2024-01-30T04:00:23;101959.48;;;3.65;85.50
31911;BME280;18457;52.432;16.914;2024-01-30T04:02:54;101957.03;;;3.67;84.81
31911;BME280;18457;52.432;16.914;2024-01-30T04:05:27;101957.33;;;3.64;84.60
31911;BME280;18457;52.432;16.914;2024-01-30T04:07:59;101956.32;;;3.60;85.49
31911;BME280;18457;52.432;16.914;2024-01-30T04:10:31;101958.66;;;3.62;85.61
31911;BME280;18457;52.432;16.914;2024-01-30T04:13:03;101958.52;;;3.63;85.21
31911;BME280;18457;52.432;16.914;2024-01-30T04:15:39;101964.43;;;3.63;84.58
31911;BME280;18457;52.432;16.914;2024-01-30T04:18:11;101964.52;;;3.66;84.10
31911;BME280;18457;52.432;16.914;2024-01-30T04:20:43;101961.66;;;3.66;84.03
31911;BME280;18457;52.432;16.914;2024-01-30T04:23:16;101960.78;;;3.66;84.02
31911;BME280;18457;52.432;16.914;2024-01-30T04:25:48;101964.47;;;3.64;84.67
31911;BME280;18457;52.432;16.914;2024-01-30T04:28:20;101965.58;;;3.66;84.25
31911;BME280;18457;52.432;16.914;2024-01-30T04:30:52;101966.61;;;3.64;84.61
31911;BME280;18457;52.432;16.914;2024-01-30T04:33:24;101967.69;;;3.64;84.50
31911;BME280;18457;52.432;16.914;2024-01-30T04:35:56;101966.50;;;3.66;84.19
31911;BME280;18457;52.432;16.914;2024-01-30T04:38:28;101966.31;;;3.66;84.14
31911;BME280;18457;52.432;16.914;2024-01-30T04:41:00;101970.91;;;3.65;84.22
31911;BME280;18457;52.432;16.914;2024-01-30T04:43:32;101969.20;;;3.61;84.26
31911;BME280;18457;52.432;16.914;2024-01-30T04:46:05;101967.40;;;3.60;84.55
31911;BME280;18457;52.432;16.914;2024-01-30T04:48:35;101966.86;;;3.61;84.59
31911;BME280;18457;52.432;16.914;2024-01-30T04:51:07;101963.12;;;3.61;84.24
31911;BME280;18457;52.432;16.914;2024-01-30T04:53:39;101964.39;;;3.62;83.97
31911;BME280;18457;52.432;16.914;2024-01-30T04:56:11;101963.98;;;3.60;84.26
31911;BME280;18457;52.432;16.914;2024-01-30T04:58:43;101967.61;;;3.61;84.01
31911;BME280;18457;52.432;16.914;2024-01-30T05:01:17;101966.16;;;3.61;83.84
31911;BME280;18457;52.432;16.914;2024-01-30T05:03:49;101964.92;;;3.61;83.79
31911;BME280;18457;52.432;16.914;2024-01-30T05:06:31;101959.73;;;3.62;83.58
31911;BME280;18457;52.432;16.914;2024-01-30T05:09:03;101960.61;;;3.60;83.39
31911;BME280;18457;52.432;16.914;2024-01-30T05:11:39;101959.38;;;3.61;83.31
31911;BME280;18457;52.432;16.914;2024-01-30T05:14:11;101966.95;;;3.63;83.15
31911;BME280;18457;52.432;16.914;2024-01-30T05:16:46;101963.52;;;3.63;83.05
31911;BME280;18457;52.432;16.914;2024-01-30T05:19:16;101967.13;;;3.63;83.06
31911;BME280;18457;52.432;16.914;2024-01-30T05:21:49;101968.15;;;3.62;82.99
31911;BME280;18457;52.432;16.914;2024-01-30T05:24:21;101966.39;;;3.63;82.94
31911;BME280;18457;52.432;16.914;2024-01-30T05:26:56;101972.41;;;3.61;82.91
31911;BME280;18457;52.432;16.914;2024-01-30T05:29:28;101971.71;;;3.62;82.84
31911;BME280;18457;52.432;16.914;2024-01-30T05:32:00;101973.37;;;3.63;82.87
31911;BME280;18457;52.432;16.914;2024-01-30T05:34:32;101975.86;;;3.63;82.75
31911;BME280;18457;52.432;16.914;2024-01-30T05:37:05;101973.36;;;3.63;82.67
31911;BME280;18457;52.432;16.914;2024-01-30T05:39:35;101970.99;;;3.62;82.84
31911;BME280;18457;52.432;16.914;2024-01-30T05:42:07;101972.44;;;3.62;82.71
31911;BME280;18457;52.432;16.914;2024-01-30T05:44:40;101969.21;;;3.61;82.61
31911;BME280;18457;52.432;16.914;2024-01-30T05:47:12;101973.27;;;3.60;82.55
31911;BME280;18457;52.432;16.914;2024-01-30T05:49:44;101974.34;;;3.60;82.60
31911;BME280;18457;52.432;16.914;2024-01-30T05:52:16;101974.36;;;3.60;82.56
31911;BME280;18457;52.432;16.914;2024-01-30T05:54:49;101977.77;;;3.61;82.53
31911;BME280;18457;52.432;16.914;2024-01-30T05:57:21;101978.13;;;3.61;82.58
31911;BME280;18457;52.432;16.914;2024-01-30T05:59:52;101976.70;;;3.61;82.45
31911;BME280;18457;52.432;16.914;2024-01-30T06:02:24;101977.08;;;3.62;82.38
31911;BME280;18457;52.432;16.914;2024-01-30T06:04:56;101973.50;;;3.61;82.39
31911;BME280;18457;52.432;16.914;2024-01-30T06:07:28;101972.83;;;3.63;82.37
31911;BME280;18457;52.432;16.914;2024-01-30T06:10:07;101968.17;;;3.63;82.41
31911;BME280;18457;52.432;16.914;2024-01-30T06:12:39;101976.64;;;3.65;82.43
31911;BME280;18457;52.432;16.914;2024-01-30T06:15:12;101976.77;;;3.63;82.32
31911;BME280;18457;52.432;16.914;2024-01-30T06:17:44;101975.16;;;3.63;82.65
31911;BME280;18457;52.432;16.914;2024-01-30T06:20:16;101972.27;;;3.62;82.40
31911;BME280;18457;52.432;16.914;2024-01-30T06:22:47;101968.53;;;3.63;82.36
31911;BME280;18457;52.432;16.914;2024-01-30T06:25:19;101968.11;;;3.60;82.28
31911;BME280;18457;52.432;16.914;2024-01-30T06:27:51;101971.52;;;3.61;82.43
31911;BME280;18457;52.432;16.914;2024-01-30T06:30:23;101967.83;;;3.63;82.30
31911;BME280;18457;52.432;16.914;2024-01-30T06:32:55;101968.86;;;3.62;82.42
31911;BME280;18457;52.432;16.914;2024-01-30T06:35:28;101968.51;;;3.62;82.39
31911;BME280;18457;52.432;16.914;2024-01-30T06:38:00;101972.49;;;3.63;82.35
31911;BME280;18457;52.432;16.914;2024-01-30T06:40:32;101971.63;;;3.65;82.08
31911;BME280;18457;52.432;16.914;2024-01-30T06:43:05;101967.48;;;3.63;82.25
31911;BME280;18457;52.432;16.914;2024-01-30T06:45:38;101967.89;;;3.65;82.28
31911;BME280;18457;52.432;16.914;2024-01-30T06:48:11;101965.13;;;3.68;82.15
31911;BME280;18457;52.432;16.914;2024-01-30T06:50:43;101966.44;;;3.70;82.20
31911;BME280;18457;52.432;16.914;2024-01-30T06:53:16;101964.75;;;3.68;82.50
31911;BME280;18457;52.432;16.914;2024-01-30T06:55:48;101962.89;;;3.65;82.93
31911;BME280;18457;52.432;16.914;2024-01-30T06:58:20;101966.48;;;3.66;83.10
31911;BME280;18457;52.432;16.914;2024-01-30T07:00:52;101967.37;;;3.66;83.14
31911;BME280;18457;52.432;16.914;2024-01-30T07:03:25;101969.02;;;3.67;83.04
31911;BME280;18457;52.432;16.914;2024-01-30T07:05:58;101967.95;;;3.67;82.97
31911;BME280;18457;52.432;16.914;2024-01-30T07:08:29;101968.89;;;3.69;83.03
31911;BME280;18457;52.432;16.914;2024-01-30T07:11:01;101967.39;;;3.73;82.85
31911;BME280;18457;52.432;16.914;2024-01-30T07:13:34;101971.62;;;3.70;82.85
31911;BME280;18457;52.432;16.914;2024-01-30T07:16:06;101970.23;;;3.71;82.90
31911;BME280;18457;52.432;16.914;2024-01-30T07:18:38;101971.29;;;3.71;82.60
31911;BME280;18457;52.432;16.914;2024-01-30T07:21:09;101971.54;;;3.73;82.52
31911;BME280;18457;52.432;16.914;2024-01-30T07:23:42;101969.85;;;3.77;82.45
31911;BME280;18457;52.432;16.914;2024-01-30T07:26:14;101978.20;;;3.81;82.40
31911;BME280;18457;52.432;16.914;2024-01-30T07:28:46;101980.24;;;3.84;82.71
31911;BME280;18457;52.432;16.914;2024-01-30T07:31:19;101980.87;;;3.87;82.30
31911;BME280;18457;52.432;16.914;2024-01-30T07:33:54;101979.74;;;3.92;82.05
31911;BME280;18457;52.432;16.914;2024-01-30T07:36:26;101981.96;;;3.94;81.97
31911;BME280;18457;52.432;16.914;2024-01-30T07:38:58;101978.82;;;3.97;81.84
31911;BME280;18457;52.432;16.914;2024-01-30T07:41:30;101980.70;;;4.00;81.72
31911;BME280;18457;52.432;16.914;2024-01-30T07:44:02;101981.13;;;4.03;81.72
31911;BME280;18457;52.432;16.914;2024-01-30T07:46:34;101980.41;;;4.09;81.64
31911;BME280;18457;52.432;16.914;2024-01-30T07:49:06;101978.90;;;4.12;81.33
31911;BME280;18457;52.432;16.914;2024-01-30T07:51:38;101978.80;;;4.16;81.26
31911;BME280;18457;52.432;16.914;2024-01-30T07:54:10;101976.11;;;4.21;80.96
31911;BME280;18457;52.432;16.914;2024-01-30T07:56:42;101976.36;;;4.24;80.62
31911;BME280;18457;52.432;16.914;2024-01-30T07:59:14;101974.29;;;4.27;80.52
31911;BME280;18457;52.432;16.914;2024-01-30T08:01:46;101973.13;;;4.30;80.29
31911;BME280;18457;52.432;16.914;2024-01-30T08:04:18;101973.81;;;4.36;80.10
31911;BME280;18457;52.432;16.914;2024-01-30T08:06:51;101970.73;;;4.41;80.05
31911;BME280;18457;52.432;16.914;2024-01-30T08:09:23;101972.12;;;4.46;79.74
31911;BME280;18457;52.432;16.914;2024-01-30T08:11:55;101975.79;;;4.50;79.41
31911;BME280;18457;52.432;16.914;2024-01-30T08:14:27;101981.82;;;4.55;79.06
31911;BME280;18457;52.432;16.914;2024-01-30T08:16:59;101973.94;;;4.62;78.83
31911;BME280;18457;52.432;16.914;2024-01-30T08:19:31;101973.73;;;4.68;78.75
31911;BME280;18457;52.432;16.914;2024-01-30T08:22:03;101976.23;;;4.74;78.51
31911;BME280;18457;52.432;16.914;2024-01-30T08:24:36;101975.08;;;4.79;78.34
31911;BME280;18457;52.432;16.914;2024-01-30T08:27:07;101976.14;;;4.85;78.11
31911;BME280;18457;52.432;16.914;2024-01-30T08:29:41;101976.39;;;4.88;77.96
31911;BME280;18457;52.432;16.914;2024-01-30T08:32:13;101972.19;;;4.92;77.87
31911;BME280;18457;52.432;16.914;2024-01-30T08:34:45;101971.10;;;4.98;77.63
31911;BME280;18457;52.432;16.914;2024-01-30T08:37:18;101970.70;;;5.04;77.44
31911;BME280;18457;52.432;16.914;2024-01-30T08:39:50;101970.87;;;5.11;77.32
31911;BME280;18457;52.432;16.914;2024-01-30T08:42:22;101972.39;;;5.15;77.34
31911;BME280;18457;52.432;16.914;2024-01-30T08:44:54;101973.33;;;5.18;76.74
31911;BME280;18457;52.432;16.914;2024-01-30T08:47:26;101974.77;;;5.26;77.05
31911;BME280;18457;52.432;16.914;2024-01-30T08:49:58;101971.46;;;5.29;76.62
31911;BME280;18457;52.432;16.914;2024-01-30T08:52:29;101973.34;;;5.33;76.59
31911;BME280;18457;52.432;16.914;2024-01-30T08:55:03;101976.31;;;5.38;76.22
31911;BME280;18457;52.432;16.914;2024-01-30T08:57:38;101978.00;;;5.41;76.22
31911;BME280;18457;52.432;16.914;2024-01-30T09:00:12;101979.57;;;5.47;76.18
31911;BME280;18457;52.432;16.914;2024-01-30T09:02:44;101979.65;;;5.51;75.97
31911;BME280;18457;52.432;16.914;2024-01-30T09:05:16;101981.55;;;5.55;75.82
31911;BME280;18457;52.432;16.914;2024-01-30T09:07:49;101974.16;;;5.62;75.85
31911;BME280;18457;52.432;16.914;2024-01-30T09:10:21;101974.10;;;5.68;75.82
31911;BME280;18457;52.432;16.914;2024-01-30T09:12:53;101979.72;;;5.71;75.06
31911;BME280;18457;52.432;16.914;2024-01-30T09:15:25;101975.55;;;5.77;74.98
31911;BME280;18457;52.432;16.914;2024-01-30T09:17:57;101971.73;;;5.82;74.90
31911;BME280;18457;52.432;16.914;2024-01-30T09:20:32;101972.58;;;5.88;74.82
31911;BME280;18457;52.432;16.914;2024-01-30T09:23:05;101970.69;;;5.92;74.58
31911;BME280;18457;52.432;16.914;2024-01-30T09:25:38;101967.17;;;5.95;74.41
31911;BME280;18457;52.432;16.914;2024-01-30T09:28:10;101960.59;;;5.98;74.28
31911;BME280;18457;52.432;16.914;2024-01-30T09:30:42;101965.25;;;6.07;74.42
31911;BME280;18457;52.432;16.914;2024-01-30T09:33:14;101958.70;;;6.11;74.06
31911;BME280;18457;52.432;16.914;2024-01-30T09:35:47;101954.96;;;6.13;73.70
31911;BME280;18457;52.432;16.914;2024-01-30T09:38:19;101953.45;;;6.19;73.88
31911;BME280;18457;52.432;16.914;2024-01-30T09:40:56;101953.00;;;6.24;73.50
31911;BME280;18457;52.432;16.914;2024-01-30T09:43:34;101945.39;;;6.30;73.26
31911;BME280;18457;52.432;16.914;2024-01-30T09:46:07;101948.36;;;6.34;73.08
31911;BME280;18457;52.432;16.914;2024-01-30T09:48:42;101948.09;;;6.39;72.70
31911;BME280;18457;52.432;16.914;2024-01-30T09:51:15;101942.81;;;6.46;72.49
31911;BME280;18457;52.432;16.914;2024-01-30T09:53:49;101935.90;;;6.51;72.15
31911;BME280;18457;52.432;16.914;2024-01-30T09:56:19;101936.71;;;6.56;72.13
31911;BME280;18457;52.432;16.914;2024-01-30T09:58:52;101938.59;;;6.61;72.17
31911;BME280;18457;52.432;16.914;2024-01-30T10:01:25;101939.36;;;6.64;72.04
31911;BME280;18457;52.432;16.914;2024-01-30T10:03:57;101940.76;;;6.72;71.92
31911;BME280;18457;52.432;16.914;2024-01-30T10:06:30;101934.89;;;6.75;71.60
31911;BME280;18457;52.432;16.914;2024-01-30T10:09:01;101934.55;;;6.78;71.25
31911;BME280;18457;52.432;16.914;2024-01-30T10:11:36;101928.52;;;6.82;71.16
31911;BME280;18457;52.432;16.914;2024-01-30T10:14:08;101927.17;;;6.88;71.14
31911;BME280;18457;52.432;16.914;2024-01-30T10:16:40;101929.85;;;6.98;71.16
31911;BME280;18457;52.432;16.914;2024-01-30T10:19:13;101929.64;;;7.08;70.71
31911;BME280;18457;52.432;16.914;2024-01-30T10:21:47;101928.31;;;7.16;70.29
31911;BME280;18457;52.432;16.914;2024-01-30T10:24:23;101920.02;;;7.27;69.94
31911;BME280;18457;52.432;16.914;2024-01-30T10:26:55;101917.88;;;7.41;69.32
31911;BME280;18457;52.432;16.914;2024-01-30T10:29:28;101918.60;;;7.55;68.81
31911;BME280;18457;52.432;16.914;2024-01-30T10:32:02;101909.80;;;7.71;68.60
31911;BME280;18457;52.432;16.914;2024-01-30T10:34:35;101911.41;;;7.85;67.95
31911;BME280;18457;52.432;16.914;2024-01-30T10:37:10;101907.63;;;8.02;67.20
31911;BME280;18457;52.432;16.914;2024-01-30T10:39:46;101900.65;;;8.23;66.66
31911;BME280;18457;52.432;16.914;2024-01-30T10:42:19;101902.82;;;8.39;65.98
31911;BME280;18457;52.432;16.914;2024-01-30T10:44:59;101903.27;;;8.50;65.23
31911;BME280;18457;52.432;16.914;2024-01-30T10:47:35;101907.83;;;8.57;63.97
31911;BME280;18457;52.432;16.914;2024-01-30T10:50:09;101899.70;;;8.56;63.54
31911;BME280;18457;52.432;16.914;2024-01-30T10:52:42;101896.60;;;8.74;63.60
31911;BME280;18457;52.432;16.914;2024-01-30T10:55:13;101895.63;;;8.87;63.17
31911;BME280;18457;52.432;16.914;2024-01-30T10:57:45;101898.06;;;9.01;62.61
31911;BME280;18457;52.432;16.914;2024-01-30T11:00:19;101897.77;;;9.10;61.98
31911;BME280;18457;52.432;16.914;2024-01-30T11:02:55;101902.44;;;9.08;61.16
31911;BME280;18457;52.432;16.914;2024-01-30T11:05:29;101895.08;;;9.14;61.31
31911;BME280;18457;52.432;16.914;2024-01-30T11:08:13;101894.34;;;9.12;61.40
31911;BME280;18457;52.432;16.914;2024-01-30T11:10:54;101889.52;;;9.18;61.35
31911;BME280;18457;52.432;16.914;2024-01-30T11:13:29;101884.31;;;9.24;61.01
31911;BME280;18457;52.432;16.914;2024-01-30T11:16:03;101885.10;;;9.37;60.69
31911;BME280;18457;52.432;16.914;2024-01-30T11:18:37;101878.23;;;9.36;60.11
31911;BME280;18457;52.432;16.914;2024-01-30T11:21:07;101870.34;;;9.44;60.49
31911;BME280;18457;52.432;16.914;2024-01-30T11:23:39;101867.83;;;9.44;60.06
31911;BME280;18457;52.432;16.914;2024-01-30T11:26:13;101864.94;;;9.45;60.14
31911;BME280;18457;52.432;16.914;2024-01-30T11:28:53;101864.62;;;9.58;60.24
31911;BME280;18457;52.432;16.914;2024-01-30T11:31:27;101864.24;;;9.52;59.74
31911;BME280;18457;52.432;16.914;2024-01-30T11:34:00;101857.02;;;9.52;59.93
31911;BME280;18457;52.432;16.914;2024-01-30T11:36:33;101859.04;;;9.60;59.89
31911;BME280;18457;52.432;16.914;2024-01-30T11:39:08;101854.55;;;9.67;60.17
31911;BME280;18457;52.432;16.914;2024-01-30T11:41:41;101849.70;;;9.75;60.28
31911;BME280;18457;52.432;16.914;2024-01-30T11:44:13;101846.80;;;9.75;59.64
31911;BME280;18457;52.432;16.914;2024-01-30T11:46:47;101847.50;;;9.65;59.29
31911;BME280;18457;52.432;16.914;2024-01-30T11:49:18;101840.44;;;9.56;59.44
31911;BME280;18457;52.432;16.914;2024-01-30T11:51:51;101840.81;;;9.64;59.72
31911;BME280;18457;52.432;16.914;2024-01-30T11:54:24;101832.90;;;9.70;60.77
31911;BME280;18457;52.432;16.914;2024-01-30T11:56:56;101836.52;;;9.71;60.15
31911;BME280;18457;52.432;16.914;2024-01-30T11:59:28;101826.78;;;9.84;59.46
31911;BME280;18457;52.432;16.914;2024-01-30T12:02:00;101831.69;;;9.96;59.03
31911;BME280;18457;52.432;16.914;2024-01-30T12:04:32;101830.23;;;9.92;58.90
31911;BME280;18457;52.432;16.914;2024-01-30T12:07:05;101835.12;;;10.00;58.70
31911;BME280;18457;52.432;16.914;2024-01-30T12:09:38;101823.38;;;9.93;58.76
31911;BME280;18457;52.432;16.914;2024-01-30T12:12:10;101824.48;;;9.97;58.76
31911;BME280;18457;52.432;16.914;2024-01-30T12:14:43;101820.13;;;9.98;58.72
31911;BME280;18457;52.432;16.914;2024-01-30T12:17:26;101818.34;;;10.02;58.57
31911;BME280;18457;52.432;16.914;2024-01-30T12:20:04;101813.09;;;9.98;58.69
31911;BME280;18457;52.432;16.914;2024-01-30T12:22:41;101815.09;;;10.02;58.69
31911;BME280;18457;52.432;16.914;2024-01-30T12:25:15;101810.23;;;10.12;58.94
31911;BME280;18457;52.432;16.914;2024-01-30T12:27:49;101816.92;;;10.12;58.63
31911;BME280;18457;52.432;16.914;2024-01-30T12:30:22;101812.23;;;10.12;58.73
31911;BME280;18457;52.432;16.914;2024-01-30T12:32:55;101809.88;;;10.14;58.18
31911;BME280;18457;52.432;16.914;2024-01-30T12:35:29;101808.60;;;10.03;58.43
31911;BME280;18457;52.432;16.914;2024-01-30T12:38:04;101805.89;;;10.09;58.60
31911;BME280;18457;52.432;16.914;2024-01-30T12:40:36;101800.29;;;10.08;58.50
31911;BME280;18457;52.432;16.914;2024-01-30T12:43:12;101798.47;;;9.97;58.52
31911;BME280;18457;52.432;16.914;2024-01-30T12:45:56;101791.05;;;9.88;59.19
31911;BME280;18457;52.432;16.914;2024-01-30T12:48:30;101786.73;;;9.99;60.16
31911;BME280;18457;52.432;16.914;2024-01-30T12:51:02;101786.95;;;10.12;59.41
31911;BME280;18457;52.432;16.914;2024-01-30T12:53:35;101786.42;;;10.19;59.02
31911;BME280;18457;52.432;16.914;2024-01-30T12:56:07;101781.71;;;10.24;58.43
31911;BME280;18457;52.432;16.914;2024-01-30T12:58:40;101779.55;;;10.28;58.45
31911;BME280;18457;52.432;16.914;2024-01-30T13:01:15;101780.27;;;10.23;58.52
31911;BME280;18457;52.432;16.914;2024-01-30T13:03:48;101780.98;;;10.28;58.32
31911;BME280;18457;52.432;16.914;2024-01-30T13:06:20;101772.14;;;10.32;58.19
31911;BME280;18457;52.432;16.914;2024-01-30T13:08:52;101775.02;;;10.35;58.24
31911;BME280;18457;52.432;16.914;2024-01-30T13:11:24;101769.60;;;10.38;58.30
31911;BME280;18457;52.432;16.914;2024-01-30T13:13:56;101770.14;;;10.45;58.53
31911;BME280;18457;52.432;16.914;2024-01-30T13:16:27;101770.13;;;10.49;57.56
31911;BME280;18457;52.432;16.914;2024-01-30T13:19:00;101775.36;;;10.53;57.07